This is the latest recevied weather packets stored in our database for station/object WV8MT. If no packets are shown the sender has not sent any weather packets the latest 10 day(s).
| Time | Temp. | Humidity | Pressure | Rain* | Wind** | Luminosity | Snow |
|---|---|---|---|---|---|---|---|
| 1778145630 | 10° C | 98% | 1016 hPa | 0 mm | - | - | - |
| 1778143221 | 10.56° C | 98% | 1015.7 hPa | 0 mm | - | - | - |
| 1778133025 | 13.89° C | 93% | 1015.8 hPa | 0 mm | - | - | - |
| 1778126446 | 15° C | 97% | 1013.9 hPa | 0 mm | - | - | - |
| 1778125221 | 15° C | 95% | 1015.5 hPa | 0 mm | - | - | - |
| 1778124018 | 15.56° C | 93% | 1015.7 hPa | 0 mm | - | - | - |
| 1778120418 | 16.11° C | 88% | 1015.3 hPa | 0 mm | - | - | - |
| 1778117420 | 17.22° C | 84% | 1014.9 hPa | 0 mm | - | - | - |
| 1778110829 | 19.44° C | 83% | 1014.3 hPa | 0 mm | - | - | - |
| 1778107216 | 20.56° C | 88% | 1013.3 hPa | 0 mm | - | - | - |
| 1778105416 | 20.56° C | 87% | 1013.1 hPa | 0 mm | - | - | - |
| 1778103622 | 20.56° C | 89% | 1013.2 hPa | 0 mm | - | - | - |
| 1778098818 | 22.22° C | 77% | 1012.5 hPa | 0 mm | - | - | - |
| 1778097627 | 21.67° C | 79% | 1012.7 hPa | 0 mm | - | - | - |
| 1778095224 | 20° C | 84% | 1012.5 hPa | 0 mm | - | - | - |
| 1778091018 | 20° C | 84% | 1012.9 hPa | 0 mm | - | - | - |
| 1778085616 | 17.78° C | 89% | 1013.4 hPa | 0 mm | - | - | - |
| 1778085020 | 17.78° C | 88% | 1013.3 hPa | 0 mm | - | - | - |
| 1778081426 | 18.33° C | 87% | 1013.1 hPa | 0 mm | - | - | - |
| 1778080832 | 17.78° C | 89% | 1013.4 hPa | 0 mm | - | - | - |
| 1778076623 | 16.11° C | 95% | 1013.8 hPa | 0 mm | - | - | - |
| 1778067629 | 13.33° C | 99% | 1014.1 hPa | 1.02 mm | - | - | - |
| 1778065823 | 13.33° C | 99% | 1013.7 hPa | 0.25 mm | - | - | - |
| 1778065227 | 13.33° C | 99% | 1013.8 hPa | 0.25 mm | - | - | - |
| 1778061019 | 17.22° C | 67% | 1013.2 hPa | 0 mm | - | - | - |
* Rain latest hour (hover to see other rain measurements)
** Current wind speed in m/s (hover to see current wind gust speed)